sensor_id;sensor_type;location;lat;lon;timestamp;pressure;altitude;pressure_sealevel;temperature;humidity
79465;BME280;68932;47.410;8.232;2023-04-19T00:02:02;97126.58;;;10.14;68.71
79465;BME280;68932;47.410;8.232;2023-04-19T00:04:29;97123.77;;;10.15;68.80
79465;BME280;68932;47.410;8.232;2023-04-19T00:06:56;97123.89;;;10.15;68.86
79465;BME280;68932;47.410;8.232;2023-04-19T00:09:22;97121.08;;;10.16;68.76
79465;BME280;68932;47.410;8.232;2023-04-19T00:11:50;97117.99;;;10.14;68.85
79465;BME280;68932;47.410;8.232;2023-04-19T00:14:17;97124.63;;;10.15;68.86
79465;BME280;68932;47.410;8.232;2023-04-19T00:16:44;97122.59;;;10.17;68.89
79465;BME280;68932;47.410;8.232;2023-04-19T00:19:11;97121.27;;;10.18;68.67
79465;BME280;68932;47.410;8.232;2023-04-19T00:21:38;97119.29;;;10.19;68.76
79465;BME280;68932;47.410;8.232;2023-04-19T00:24:06;97117.35;;;10.19;68.58
79465;BME280;68932;47.410;8.232;2023-04-19T00:26:33;97117.86;;;10.17;68.69
79465;BME280;68932;47.410;8.232;2023-04-19T00:29:00;97116.19;;;10.15;68.53
79465;BME280;68932;47.410;8.232;2023-04-19T00:31:26;97116.84;;;10.16;68.71
79465;BME280;68932;47.410;8.232;2023-04-19T00:33:53;97115.46;;;10.16;68.78
79465;BME280;68932;47.410;8.232;2023-04-19T00:36:20;97114.13;;;10.15;68.67
79465;BME280;68932;47.410;8.232;2023-04-19T00:38:47;97115.88;;;10.15;68.77
79465;BME280;68932;47.410;8.232;2023-04-19T00:41:14;97114.21;;;10.16;68.84
79465;BME280;68932;47.410;8.232;2023-04-19T00:43:41;97115.52;;;10.18;68.66
79465;BME280;68932;47.410;8.232;2023-04-19T00:46:08;97118.78;;;10.18;68.67
79465;BME280;68932;47.410;8.232;2023-04-19T00:48:36;97116.10;;;10.20;68.64
79465;BME280;68932;47.410;8.232;2023-04-19T00:51:03;97117.44;;;10.20;68.63
79465;BME280;68932;47.410;8.232;2023-04-19T00:53:31;97111.27;;;10.21;68.62
79465;BME280;68932;47.410;8.232;2023-04-19T00:56:00;97110.92;;;10.21;68.56
79465;BME280;68932;47.410;8.232;2023-04-19T00:58:28;97108.15;;;10.20;68.51
79465;BME280;68932;47.410;8.232;2023-04-19T01:00:55;97103.27;;;10.20;68.56
79465;BME280;68932;47.410;8.232;2023-04-19T01:03:22;97105.08;;;10.19;68.53
79465;BME280;68932;47.410;8.232;2023-04-19T01:05:49;97102.93;;;10.17;68.52
79465;BME280;68932;47.410;8.232;2023-04-19T01:08:16;97102.64;;;10.16;68.34
79465;BME280;68932;47.410;8.232;2023-04-19T01:10:43;97100.15;;;10.17;68.51
79465;BME280;68932;47.410;8.232;2023-04-19T01:13:10;97099.09;;;10.17;68.61
79465;BME280;68932;47.410;8.232;2023-04-19T01:15:36;97095.14;;;10.16;68.57
79465;BME280;68932;47.410;8.232;2023-04-19T01:18:04;97094.30;;;10.15;68.76
79465;BME280;68932;47.410;8.232;2023-04-19T01:20:30;97091.89;;;10.14;68.75
79465;BME280;68932;47.410;8.232;2023-04-19T01:22:58;97089.73;;;10.13;68.78
79465;BME280;68932;47.410;8.232;2023-04-19T01:25:25;97087.23;;;10.11;68.86
79465;BME280;68932;47.410;8.232;2023-04-19T01:27:51;97085.86;;;10.07;68.92
79465;BME280;68932;47.410;8.232;2023-04-19T01:30:18;97083.59;;;10.05;69.12
79465;BME280;68932;47.410;8.232;2023-04-19T01:32:45;97082.11;;;10.03;69.09
79465;BME280;68932;47.410;8.232;2023-04-19T01:35:12;97082.57;;;10.01;69.30
79465;BME280;68932;47.410;8.232;2023-04-19T01:37:40;97082.63;;;10.00;69.33
79465;BME280;68932;47.410;8.232;2023-04-19T01:40:08;97078.98;;;9.99;69.52
79465;BME280;68932;47.410;8.232;2023-04-19T01:42:35;97072.59;;;9.98;69.45
79465;BME280;68932;47.410;8.232;2023-04-19T01:45:03;97075.06;;;9.98;69.45
79465;BME280;68932;47.410;8.232;2023-04-19T01:47:30;97073.83;;;9.98;69.47
79465;BME280;68932;47.410;8.232;2023-04-19T01:49:58;97074.00;;;9.97;69.44
79465;BME280;68932;47.410;8.232;2023-04-19T01:52:25;97070.59;;;9.96;69.53
79465;BME280;68932;47.410;8.232;2023-04-19T01:54:51;97071.08;;;9.97;69.59
79465;BME280;68932;47.410;8.232;2023-04-19T01:57:19;97070.15;;;9.98;69.58
79465;BME280;68932;47.410;8.232;2023-04-19T01:59:45;97065.48;;;9.99;69.60
79465;BME280;68932;47.410;8.232;2023-04-19T02:02:12;97062.34;;;10.00;69.56
79465;BME280;68932;47.410;8.232;2023-04-19T02:04:39;97062.38;;;9.99;69.60
79465;BME280;68932;47.410;8.232;2023-04-19T02:07:06;97066.50;;;9.97;69.51
79465;BME280;68932;47.410;8.232;2023-04-19T02:09:35;97066.16;;;9.97;69.58
79465;BME280;68932;47.410;8.232;2023-04-19T02:12:03;97064.08;;;9.94;69.59
79465;BME280;68932;47.410;8.232;2023-04-19T02:14:30;97061.13;;;9.91;69.59
79465;BME280;68932;47.410;8.232;2023-04-19T02:16:57;97061.45;;;9.91;69.80
79465;BME280;68932;47.410;8.232;2023-04-19T02:19:24;97060.89;;;9.92;69.89
79465;BME280;68932;47.410;8.232;2023-04-19T02:21:50;97061.92;;;9.92;69.77
79465;BME280;68932;47.410;8.232;2023-04-19T02:24:17;97058.16;;;9.91;69.74
79465;BME280;68932;47.410;8.232;2023-04-19T02:26:45;97060.67;;;9.90;69.85
79465;BME280;68932;47.410;8.232;2023-04-19T02:29:11;97057.11;;;9.91;69.95
79465;BME280;68932;47.410;8.232;2023-04-19T02:31:39;97053.48;;;9.90;70.07
79465;BME280;68932;47.410;8.232;2023-04-19T02:34:06;97055.70;;;9.88;69.93
79465;BME280;68932;47.410;8.232;2023-04-19T02:36:33;97051.73;;;9.87;70.01
79465;BME280;68932;47.410;8.232;2023-04-19T02:39:00;97054.43;;;9.86;70.02
79465;BME280;68932;47.410;8.232;2023-04-19T02:41:27;97052.70;;;9.85;70.07
79465;BME280;68932;47.410;8.232;2023-04-19T02:43:54;97057.08;;;9.86;70.11
79465;BME280;68932;47.410;8.232;2023-04-19T02:46:21;97053.84;;;9.87;69.99
79465;BME280;68932;47.410;8.232;2023-04-19T02:48:48;97055.59;;;9.87;70.12
79465;BME280;68932;47.410;8.232;2023-04-19T02:51:15;97054.98;;;9.89;70.11
79465;BME280;68932;47.410;8.232;2023-04-19T02:53:43;97058.06;;;9.89;70.11
79465;BME280;68932;47.410;8.232;2023-04-19T02:56:10;97052.50;;;9.89;70.17
79465;BME280;68932;47.410;8.232;2023-04-19T02:58:36;97047.48;;;9.88;70.19
79465;BME280;68932;47.410;8.232;2023-04-19T03:01:03;97049.94;;;9.88;70.24
79465;BME280;68932;47.410;8.232;2023-04-19T03:03:31;97049.63;;;9.87;70.14
79465;BME280;68932;47.410;8.232;2023-04-19T03:05:58;97049.76;;;9.88;70.22
79465;BME280;68932;47.410;8.232;2023-04-19T03:08:25;97051.79;;;9.89;70.07
79465;BME280;68932;47.410;8.232;2023-04-19T03:10:51;97048.88;;;9.91;70.23
79465;BME280;68932;47.410;8.232;2023-04-19T03:13:18;97051.06;;;9.92;70.09
79465;BME280;68932;47.410;8.232;2023-04-19T03:15:46;97050.80;;;9.93;70.25
79465;BME280;68932;47.410;8.232;2023-04-19T03:18:13;97048.50;;;9.94;70.11
79465;BME280;68932;47.410;8.232;2023-04-19T03:20:40;97050.97;;;9.94;70.07
79465;BME280;68932;47.410;8.232;2023-04-19T03:23:07;97047.13;;;9.91;69.97
79465;BME280;68932;47.410;8.232;2023-04-19T03:25:34;97046.79;;;9.91;70.10
79465;BME280;68932;47.410;8.232;2023-04-19T03:28:01;97046.83;;;9.90;70.18
79465;BME280;68932;47.410;8.232;2023-04-19T03:30:28;97045.69;;;9.91;70.15
79465;BME280;68932;47.410;8.232;2023-04-19T03:32:55;97045.20;;;9.93;70.31
79465;BME280;68932;47.410;8.232;2023-04-19T03:35:22;97043.11;;;9.96;70.34
79465;BME280;68932;47.410;8.232;2023-04-19T03:37:49;97043.51;;;9.98;70.24
79465;BME280;68932;47.410;8.232;2023-04-19T03:40:16;97041.52;;;9.99;70.14
79465;BME280;68932;47.410;8.232;2023-04-19T03:42:43;97038.98;;;10.01;70.12
79465;BME280;68932;47.410;8.232;2023-04-19T03:45:11;97037.08;;;10.00;70.31
79465;BME280;68932;47.410;8.232;2023-04-19T03:47:38;97039.29;;;10.02;70.42
79465;BME280;68932;47.410;8.232;2023-04-19T03:50:07;97032.67;;;10.01;70.24
79465;BME280;68932;47.410;8.232;2023-04-19T03:52:34;97032.29;;;10.01;70.32
79465;BME280;68932;47.410;8.232;2023-04-19T03:55:02;97030.35;;;10.02;70.29
79465;BME280;68932;47.410;8.232;2023-04-19T03:57:29;97029.84;;;10.02;70.35
79465;BME280;68932;47.410;8.232;2023-04-19T03:59:56;97024.96;;;10.01;70.22
79465;BME280;68932;47.410;8.232;2023-04-19T04:02:23;97023.84;;;10.02;70.28
79465;BME280;68932;47.410;8.232;2023-04-19T04:04:53;97026.38;;;10.04;70.12
79465;BME280;68932;47.410;8.232;2023-04-19T04:07:20;97020.45;;;10.03;70.11
79465;BME280;68932;47.410;8.232;2023-04-19T04:09:47;97021.90;;;10.03;69.91
79465;BME280;68932;47.410;8.232;2023-04-19T04:12:15;97024.30;;;10.00;69.83
79465;BME280;68932;47.410;8.232;2023-04-19T04:14:41;97021.50;;;9.97;69.57
79465;BME280;68932;47.410;8.232;2023-04-19T04:17:08;97022.80;;;9.96;69.71
79465;BME280;68932;47.410;8.232;2023-04-19T04:19:35;97023.39;;;9.95;69.70
79465;BME280;68932;47.410;8.232;2023-04-19T04:22:03;97025.81;;;9.95;69.77
79465;BME280;68932;47.410;8.232;2023-04-19T04:24:30;97028.05;;;9.96;69.65
79465;BME280;68932;47.410;8.232;2023-04-19T04:27:03;97029.68;;;9.98;69.71
79465;BME280;68932;47.410;8.232;2023-04-19T04:29:32;97024.70;;;9.99;69.70
79465;BME280;68932;47.410;8.232;2023-04-19T04:31:59;97027.11;;;10.00;69.73
79465;BME280;68932;47.410;8.232;2023-04-19T04:34:26;97029.48;;;10.01;69.71
79465;BME280;68932;47.410;8.232;2023-04-19T04:36:53;97029.86;;;10.01;69.59
79465;BME280;68932;47.410;8.232;2023-04-19T04:39:20;97031.94;;;10.01;69.55
79465;BME280;68932;47.410;8.232;2023-04-19T04:41:48;97030.27;;;10.00;69.48
79465;BME280;68932;47.410;8.232;2023-04-19T04:44:15;97032.03;;;9.99;69.46
79465;BME280;68932;47.410;8.232;2023-04-19T04:46:42;97033.39;;;9.97;69.43
79465;BME280;68932;47.410;8.232;2023-04-19T04:49:09;97036.52;;;9.95;69.44
79465;BME280;68932;47.410;8.232;2023-04-19T04:51:36;97036.19;;;9.92;69.43
79465;BME280;68932;47.410;8.232;2023-04-19T04:54:03;97037.52;;;9.91;69.49
79465;BME280;68932;47.410;8.232;2023-04-19T04:56:30;97035.30;;;9.92;69.64
79465;BME280;68932;47.410;8.232;2023-04-19T04:58:57;97032.29;;;9.93;69.61
79465;BME280;68932;47.410;8.232;2023-04-19T05:01:24;97033.90;;;9.92;69.55
79465;BME280;68932;47.410;8.232;2023-04-19T05:03:51;97034.07;;;9.92;69.62
79465;BME280;68932;47.410;8.232;2023-04-19T05:06:18;97038.20;;;9.93;69.56
79465;BME280;68932;47.410;8.232;2023-04-19T05:08:45;97037.88;;;9.93;69.73
79465;BME280;68932;47.410;8.232;2023-04-19T05:11:13;97038.73;;;9.93;69.88
79465;BME280;68932;47.410;8.232;2023-04-19T05:13:40;97041.19;;;9.93;69.75
79465;BME280;68932;47.410;8.232;2023-04-19T05:16:07;97041.80;;;9.92;69.72
79465;BME280;68932;47.410;8.232;2023-04-19T05:18:34;97043.55;;;9.92;69.80
79465;BME280;68932;47.410;8.232;2023-04-19T05:21:01;97040.71;;;9.93;69.73
79465;BME280;68932;47.410;8.232;2023-04-19T05:23:28;97039.66;;;9.95;69.71
79465;BME280;68932;47.410;8.232;2023-04-19T05:25:55;97038.11;;;9.98;69.70
79465;BME280;68932;47.410;8.232;2023-04-19T05:28:21;97035.47;;;10.01;69.77
79465;BME280;68932;47.410;8.232;2023-04-19T05:30:49;97033.59;;;10.03;69.55
79465;BME280;68932;47.410;8.232;2023-04-19T05:33:16;97035.20;;;10.05;69.61
79465;BME280;68932;47.410;8.232;2023-04-19T05:35:42;97038.02;;;10.08;69.64
79465;BME280;68932;47.410;8.232;2023-04-19T05:38:10;97042.41;;;10.10;69.71
79465;BME280;68932;47.410;8.232;2023-04-19T05:40:37;97041.42;;;10.12;69.72
79465;BME280;68932;47.410;8.232;2023-04-19T05:43:04;97041.04;;;10.13;69.51
79465;BME280;68932;47.410;8.232;2023-04-19T05:45:30;97046.23;;;10.14;69.51
79465;BME280;68932;47.410;8.232;2023-04-19T05:47:58;97043.55;;;10.14;69.31
79465;BME280;68932;47.410;8.232;2023-04-19T05:50:25;97038.77;;;10.15;69.32
79465;BME280;68932;47.410;8.232;2023-04-19T05:52:52;97043.52;;;10.15;69.25
79465;BME280;68932;47.410;8.232;2023-04-19T05:55:19;97042.80;;;10.15;69.21
79465;BME280;68932;47.410;8.232;2023-04-19T05:57:46;97040.47;;;10.16;69.22
79465;BME280;68932;47.410;8.232;2023-04-19T06:00:15;97047.05;;;10.17;69.34
79465;BME280;68932;47.410;8.232;2023-04-19T06:02:42;97044.53;;;10.18;69.14
79465;BME280;68932;47.410;8.232;2023-04-19T06:05:10;97048.51;;;10.19;69.27
79465;BME280;68932;47.410;8.232;2023-04-19T06:07:36;97053.13;;;10.21;69.22
79465;BME280;68932;47.410;8.232;2023-04-19T06:10:06;97046.42;;;10.22;69.15
79465;BME280;68932;47.410;8.232;2023-04-19T06:12:33;97053.50;;;10.24;69.32
79465;BME280;68932;47.410;8.232;2023-04-19T06:15:00;97051.16;;;10.25;69.32
79465;BME280;68932;47.410;8.232;2023-04-19T06:17:27;97049.67;;;10.26;69.14
79465;BME280;68932;47.410;8.232;2023-04-19T06:19:54;97053.35;;;10.26;69.14
79465;BME280;68932;47.410;8.232;2023-04-19T06:22:21;97055.29;;;10.28;69.18
79465;BME280;68932;47.410;8.232;2023-04-19T06:24:48;97054.56;;;10.29;69.17
79465;BME280;68932;47.410;8.232;2023-04-19T06:27:16;97055.40;;;10.30;69.18
79465;BME280;68932;47.410;8.232;2023-04-19T06:29:43;97053.60;;;10.31;69.12
79465;BME280;68932;47.410;8.232;2023-04-19T06:32:10;97056.15;;;10.32;69.20
79465;BME280;68932;47.410;8.232;2023-04-19T06:34:37;97058.45;;;10.31;69.25
79465;BME280;68932;47.410;8.232;2023-04-19T06:37:04;97060.53;;;10.32;69.17
79465;BME280;68932;47.410;8.232;2023-04-19T06:39:31;97060.34;;;10.32;69.00
79465;BME280;68932;47.410;8.232;2023-04-19T06:41:58;97060.25;;;10.33;68.89
79465;BME280;68932;47.410;8.232;2023-04-19T06:44:25;97060.67;;;10.35;68.92
79465;BME280;68932;47.410;8.232;2023-04-19T06:46:52;97059.24;;;10.35;68.87
79465;BME280;68932;47.410;8.232;2023-04-19T06:49:18;97057.45;;;10.36;68.96
79465;BME280;68932;47.410;8.232;2023-04-19T06:51:45;97061.94;;;10.37;68.85
79465;BME280;68932;47.410;8.232;2023-04-19T06:54:12;97060.28;;;10.38;68.87
79465;BME280;68932;47.410;8.232;2023-04-19T06:56:40;97061.66;;;10.39;68.84
79465;BME280;68932;47.410;8.232;2023-04-19T06:59:08;97060.73;;;10.37;68.68
79465;BME280;68932;47.410;8.232;2023-04-19T07:01:35;97066.60;;;10.35;68.73
79465;BME280;68932;47.410;8.232;2023-04-19T07:04:02;97067.42;;;10.36;68.71
79465;BME280;68932;47.410;8.232;2023-04-19T07:06:29;97066.68;;;10.37;68.50
79465;BME280;68932;47.410;8.232;2023-04-19T07:08:55;97068.60;;;10.37;68.43
79465;BME280;68932;47.410;8.232;2023-04-19T07:11:22;97066.08;;;10.38;68.62
79465;BME280;68932;47.410;8.232;2023-04-19T07:13:49;97065.49;;;10.43;68.68
79465;BME280;68932;47.410;8.232;2023-04-19T07:16:16;97065.16;;;10.45;68.40
79465;BME280;68932;47.410;8.232;2023-04-19T07:18:43;97066.77;;;10.47;68.33
79465;BME280;68932;47.410;8.232;2023-04-19T07:21:10;97067.35;;;10.49;68.35
79465;BME280;68932;47.410;8.232;2023-04-19T07:23:37;97065.52;;;10.50;68.14
79465;BME280;68932;47.410;8.232;2023-04-19T07:26:05;97066.79;;;10.52;68.24
79465;BME280;68932;47.410;8.232;2023-04-19T07:28:32;97063.83;;;10.54;68.05
79465;BME280;68932;47.410;8.232;2023-04-19T07:30:59;97062.30;;;10.53;67.84
79465;BME280;68932;47.410;8.232;2023-04-19T07:33:27;97062.41;;;10.55;67.68
79465;BME280;68932;47.410;8.232;2023-04-19T07:35:54;97063.54;;;10.56;67.83
79465;BME280;68932;47.410;8.232;2023-04-19T07:38:21;97064.13;;;10.58;67.90
79465;BME280;68932;47.410;8.232;2023-04-19T07:40:48;97063.23;;;10.61;67.90
79465;BME280;68932;47.410;8.232;2023-04-19T07:43:15;97060.67;;;10.63;67.71
79465;BME280;68932;47.410;8.232;2023-04-19T07:45:41;97060.61;;;10.64;67.85
79465;BME280;68932;47.410;8.232;2023-04-19T07:48:09;97060.15;;;10.65;67.83
79465;BME280;68932;47.410;8.232;2023-04-19T07:50:36;97062.17;;;10.66;67.66
79465;BME280;68932;47.410;8.232;2023-04-19T07:53:03;97061.58;;;10.67;68.01
79465;BME280;68932;47.410;8.232;2023-04-19T07:55:30;97064.14;;;10.68;67.91
79465;BME280;68932;47.410;8.232;2023-04-19T07:57:58;97065.55;;;10.68;67.84
79465;BME280;68932;47.410;8.232;2023-04-19T08:00:25;97062.95;;;10.68;68.02
79465;BME280;68932;47.410;8.232;2023-04-19T08:02:52;97058.20;;;10.69;67.80
79465;BME280;68932;47.410;8.232;2023-04-19T08:05:19;97059.20;;;10.69;67.54
79465;BME280;68932;47.410;8.232;2023-04-19T08:07:46;97061.13;;;10.72;67.79
79465;BME280;68932;47.410;8.232;2023-04-19T08:10:13;97063.31;;;10.73;67.71
79465;BME280;68932;47.410;8.232;2023-04-19T08:12:41;97062.97;;;10.75;67.78
79465;BME280;68932;47.410;8.232;2023-04-19T08:15:09;97061.64;;;10.77;67.59
79465;BME280;68932;47.410;8.232;2023-04-19T08:17:36;97061.65;;;10.80;67.64
79465;BME280;68932;47.410;8.232;2023-04-19T08:20:04;97056.95;;;10.83;67.33
79465;BME280;68932;47.410;8.232;2023-04-19T08:22:31;97058.73;;;10.85;67.21
79465;BME280;68932;47.410;8.232;2023-04-19T08:24:58;97056.61;;;10.88;67.07
79465;BME280;68932;47.410;8.232;2023-04-19T08:27:25;97055.46;;;10.89;67.13
79465;BME280;68932;47.410;8.232;2023-04-19T08:29:51;97052.27;;;10.90;67.13
79465;BME280;68932;47.410;8.232;2023-04-19T08:32:18;97052.52;;;10.91;67.19
79465;BME280;68932;47.410;8.232;2023-04-19T08:34:45;97055.29;;;10.92;67.26
79465;BME280;68932;47.410;8.232;2023-04-19T08:37:12;97054.13;;;10.93;67.14
79465;BME280;68932;47.410;8.232;2023-04-19T08:39:39;97055.64;;;10.97;67.35
79465;BME280;68932;47.410;8.232;2023-04-19T08:42:07;97057.36;;;11.00;67.22
79465;BME280;68932;47.410;8.232;2023-04-19T08:44:35;97057.79;;;11.01;66.99
79465;BME280;68932;47.410;8.232;2023-04-19T08:47:03;97058.06;;;11.03;66.71
79465;BME280;68932;47.410;8.232;2023-04-19T08:49:31;97055.14;;;11.04;66.65
79465;BME280;68932;47.410;8.232;2023-04-19T08:52:01;97051.37;;;11.05;66.63
79465;BME280;68932;47.410;8.232;2023-04-19T08:54:29;97052.71;;;11.06;66.43
79465;BME280;68932;47.410;8.232;2023-04-19T08:56:58;97047.85;;;11.06;66.25
79465;BME280;68932;47.410;8.232;2023-04-19T08:59:25;97046.91;;;11.04;65.97
79465;BME280;68932;47.410;8.232;2023-04-19T09:01:52;97048.19;;;11.01;66.09
79465;BME280;68932;47.410;8.232;2023-04-19T09:04:20;97050.10;;;10.98;66.19
79465;BME280;68932;47.410;8.232;2023-04-19T09:06:47;97048.17;;;10.95;66.07
79465;BME280;68932;47.410;8.232;2023-04-19T09:09:15;97047.02;;;10.95;65.99
79465;BME280;68932;47.410;8.232;2023-04-19T09:11:43;97047.08;;;10.96;66.06
79465;BME280;68932;47.410;8.232;2023-04-19T09:14:12;97044.17;;;11.00;66.47
79465;BME280;68932;47.410;8.232;2023-04-19T09:16:39;97043.78;;;11.06;66.66
79465;BME280;68932;47.410;8.232;2023-04-19T09:19:07;97038.40;;;11.13;66.53
79465;BME280;68932;47.410;8.232;2023-04-19T09:21:34;97039.42;;;11.19;66.51
79465;BME280;68932;47.410;8.232;2023-04-19T09:24:02;97039.63;;;11.24;66.51
79465;BME280;68932;47.410;8.232;2023-04-19T09:26:30;97035.94;;;11.29;66.33
79465;BME280;68932;47.410;8.232;2023-04-19T09:28:57;97036.79;;;11.32;65.95
79465;BME280;68932;47.410;8.232;2023-04-19T09:31:27;97034.77;;;11.34;65.67
79465;BME280;68932;47.410;8.232;2023-04-19T09:33:54;97032.04;;;11.33;65.55
79465;BME280;68932;47.410;8.232;2023-04-19T09:36:29;97029.10;;;11.32;65.56
79465;BME280;68932;47.410;8.232;2023-04-19T09:38:57;97020.34;;;11.31;65.44
79465;BME280;68932;47.410;8.232;2023-04-19T09:41:25;97025.37;;;11.32;65.37
79465;BME280;68932;47.410;8.232;2023-04-19T09:43:52;97019.75;;;11.33;65.34
79465;BME280;68932;47.410;8.232;2023-04-19T09:46:33;97016.79;;;11.32;65.26
79465;BME280;68932;47.410;8.232;2023-04-19T09:49:17;97012.29;;;11.36;65.14
79465;BME280;68932;47.410;8.232;2023-04-19T09:51:46;97012.17;;;11.41;65.30
79465;BME280;68932;47.410;8.232;2023-04-19T09:54:14;97006.98;;;11.47;65.35
79465;BME280;68932;47.410;8.232;2023-04-19T09:56:42;97003.52;;;11.51;64.93
79465;BME280;68932;47.410;8.232;2023-04-19T09:59:11;97004.30;;;11.53;64.53
79465;BME280;68932;47.410;8.232;2023-04-19T10:01:41;97001.20;;;11.52;64.49
79465;BME280;68932;47.410;8.232;2023-04-19T10:04:10;96997.87;;;11.54;64.74
79465;BME280;68932;47.410;8.232;2023-04-19T10:06:39;96995.25;;;11.57;64.72
79465;BME280;68932;47.410;8.232;2023-04-19T10:09:07;96994.09;;;11.58;64.81
79465;BME280;68932;47.410;8.232;2023-04-19T10:11:35;96989.80;;;11.59;64.85
79465;BME280;68932;47.410;8.232;2023-04-19T10:14:04;96990.20;;;11.59;64.76
79465;BME280;68932;47.410;8.232;2023-04-19T10:16:32;96989.01;;;11.58;64.54
79465;BME280;68932;47.410;8.232;2023-04-19T10:18:59;96989.71;;;11.56;64.45
79465;BME280;68932;47.410;8.232;2023-04-19T10:21:27;96988.34;;;11.55;64.57
79465;BME280;68932;47.410;8.232;2023-04-19T10:23:55;96988.42;;;11.51;64.00
79465;BME280;68932;47.410;8.232;2023-04-19T10:26:22;96980.41;;;11.48;64.18
79465;BME280;68932;47.410;8.232;2023-04-19T10:28:49;96983.30;;;11.47;64.58
79465;BME280;68932;47.410;8.232;2023-04-19T10:31:19;96982.92;;;11.48;65.18
79465;BME280;68932;47.410;8.232;2023-04-19T10:33:47;96983.17;;;11.49;65.15
79465;BME280;68932;47.410;8.232;2023-04-19T10:36:15;96980.40;;;11.51;65.14
79465;BME280;68932;47.410;8.232;2023-04-19T10:38:43;96978.57;;;11.52;65.12
79465;BME280;68932;47.410;8.232;2023-04-19T10:41:11;96977.44;;;11.53;65.16
79465;BME280;68932;47.410;8.232;2023-04-19T10:43:39;96977.73;;;11.56;65.02
79465;BME280;68932;47.410;8.232;2023-04-19T10:46:08;96972.50;;;11.58;64.69
79465;BME280;68932;47.410;8.232;2023-04-19T10:48:38;96967.39;;;11.61;64.81
79465;BME280;68932;47.410;8.232;2023-04-19T10:51:11;96965.16;;;11.63;65.05
79465;BME280;68932;47.410;8.232;2023-04-19T10:53:49;96969.11;;;11.64;64.90
79465;BME280;68932;47.410;8.232;2023-04-19T10:56:17;96962.30;;;11.64;64.78
79465;BME280;68932;47.410;8.232;2023-04-19T10:59:12;96958.98;;;11.64;64.80
79465;BME280;68932;47.410;8.232;2023-04-19T11:01:41;96958.95;;;11.62;64.95
79465;BME280;68932;47.410;8.232;2023-04-19T11:04:09;96955.08;;;11.62;65.25
79465;BME280;68932;47.410;8.232;2023-04-19T11:06:37;96950.02;;;11.61;65.02
79465;BME280;68932;47.410;8.232;2023-04-19T11:09:22;96946.23;;;11.63;65.00
79465;BME280;68932;47.410;8.232;2023-04-19T11:11:49;96947.17;;;11.64;64.85
79465;BME280;68932;47.410;8.232;2023-04-19T11:14:18;96942.03;;;11.65;64.36
79465;BME280;68932;47.410;8.232;2023-04-19T11:16:46;96939.55;;;11.66;64.17
79465;BME280;68932;47.410;8.232;2023-04-19T11:19:15;96935.97;;;11.66;64.36
79465;BME280;68932;47.410;8.232;2023-04-19T11:21:43;96936.09;;;11.67;64.68
79465;BME280;68932;47.410;8.232;2023-04-19T11:24:11;96933.84;;;11.69;64.60
79465;BME280;68932;47.410;8.232;2023-04-19T11:26:38;96929.64;;;11.71;64.74
79465;BME280;68932;47.410;8.232;2023-04-19T11:29:09;96927.25;;;11.75;64.60
79465;BME280;68932;47.410;8.232;2023-04-19T11:31:36;96926.80;;;11.79;64.75
79465;BME280;68932;47.410;8.232;2023-04-19T11:34:03;96930.11;;;11.84;64.67
79465;BME280;68932;47.410;8.232;2023-04-19T11:36:30;96926.86;;;11.91;64.29
79465;BME280;68932;47.410;8.232;2023-04-19T11:38:57;96924.73;;;11.99;64.19
79465;BME280;68932;47.410;8.232;2023-04-19T11:41:24;96913.27;;;12.07;63.82
79465;BME280;68932;47.410;8.232;2023-04-19T11:43:51;96911.95;;;12.15;63.75
79465;BME280;68932;47.410;8.232;2023-04-19T11:46:18;96911.66;;;12.23;63.96
79465;BME280;68932;47.410;8.232;2023-04-19T11:48:52;96910.36;;;12.31;63.84
79465;BME280;68932;47.410;8.232;2023-04-19T11:51:20;96908.69;;;12.40;63.49
79465;BME280;68932;47.410;8.232;2023-04-19T11:53:47;96912.19;;;12.48;63.07
79465;BME280;68932;47.410;8.232;2023-04-19T11:56:14;96907.31;;;12.54;62.71
79465;BME280;68932;47.410;8.232;2023-04-19T11:58:42;96906.33;;;12.62;62.72
79465;BME280;68932;47.410;8.232;2023-04-19T12:01:11;96902.52;;;12.73;63.07
79465;BME280;68932;47.410;8.232;2023-04-19T12:03:43;96899.40;;;12.85;63.09
79465;BME280;68932;47.410;8.232;2023-04-19T12:06:10;96900.85;;;12.95;62.18
79465;BME280;68932;47.410;8.232;2023-04-19T12:08:41;96894.06;;;13.03;62.12
79465;BME280;68932;47.410;8.232;2023-04-19T12:11:08;96893.05;;;13.12;61.70
79465;BME280;68932;47.410;8.232;2023-04-19T12:13:36;96894.70;;;13.20;61.92
79465;BME280;68932;47.410;8.232;2023-04-19T12:16:04;96892.56;;;13.25;61.28
79465;BME280;68932;47.410;8.232;2023-04-19T12:18:43;96893.41;;;13.28;60.76
79465;BME280;68932;47.410;8.232;2023-04-19T12:21:11;96892.36;;;13.31;60.68
79465;BME280;68932;47.410;8.232;2023-04-19T12:23:49;96886.47;;;13.34;60.79
79465;BME280;68932;47.410;8.232;2023-04-19T12:26:16;96885.48;;;13.37;60.49
79465;BME280;68932;47.410;8.232;2023-04-19T12:28:43;96883.84;;;13.40;60.08
79465;BME280;68932;47.410;8.232;2023-04-19T12:31:10;96881.68;;;13.41;59.60
79465;BME280;68932;47.410;8.232;2023-04-19T12:33:37;96885.30;;;13.40;59.43
79465;BME280;68932;47.410;8.232;2023-04-19T12:36:06;96880.98;;;13.41;59.35
79465;BME280;68932;47.410;8.232;2023-04-19T12:38:33;96881.52;;;13.41;59.06
79465;BME280;68932;47.410;8.232;2023-04-19T12:41:00;96879.89;;;13.37;58.69
79465;BME280;68932;47.410;8.232;2023-04-19T12:43:27;96877.11;;;13.34;58.63
79465;BME280;68932;47.410;8.232;2023-04-19T12:45:54;96874.88;;;13.31;58.57
79465;BME280;68932;47.410;8.232;2023-04-19T12:48:21;96877.16;;;13.31;58.80
79465;BME280;68932;47.410;8.232;2023-04-19T12:50:48;96875.41;;;13.29;58.38
79465;BME280;68932;47.410;8.232;2023-04-19T12:53:16;96874.36;;;13.29;59.04
79465;BME280;68932;47.410;8.232;2023-04-19T12:55:43;96871.00;;;13.31;58.95
79465;BME280;68932;47.410;8.232;2023-04-19T12:58:10;96867.61;;;13.32;58.83
79465;BME280;68932;47.410;8.232;2023-04-19T13:00:37;96864.27;;;13.30;58.51
79465;BME280;68932;47.410;8.232;2023-04-19T13:03:04;96863.67;;;13.28;58.62
79465;BME280;68932;47.410;8.232;2023-04-19T13:05:31;96861.23;;;13.28;58.98